createdAt,value
2022-10-16T00:00:35.404Z,2.80
2022-10-16T00:03:02.065Z,3.90
2022-10-16T00:05:28.913Z,4.53
2022-10-16T00:07:57.463Z,3.45
2022-10-16T00:10:24.377Z,3.88
2022-10-16T00:12:50.858Z,2.08
2022-10-16T00:15:18.824Z,2.58
2022-10-16T00:17:45.248Z,2.15
2022-10-16T00:20:11.698Z,1.92
2022-10-16T00:22:38.176Z,3.40
2022-10-16T00:25:05.180Z,3.42
2022-10-16T00:27:31.656Z,1.75
2022-10-16T00:32:27.396Z,4.68
2022-10-16T00:34:54.206Z,2.70
2022-10-16T00:37:20.677Z,1.90
2022-10-16T00:39:47.390Z,2.50
2022-10-16T00:42:16.214Z,2.15
2022-10-16T00:44:46.638Z,1.70
2022-10-16T00:47:18.594Z,2.03
2022-10-16T00:49:48.173Z,1.83
2022-10-16T00:52:15.571Z,1.92
2022-10-16T00:54:42.198Z,2.00
2022-10-16T00:57:08.890Z,1.35
2022-10-16T00:59:39.058Z,5.47
2022-10-16T01:02:06.953Z,3.83
2022-10-16T01:04:38.077Z,1.73
2022-10-16T01:07:13.023Z,4.00
2022-10-16T01:09:51.643Z,2.78
2022-10-16T01:12:28.933Z,2.50
2022-10-16T01:15:00.449Z,3.00
2022-10-16T01:17:33.595Z,2.40
2022-10-16T01:20:15.642Z,2.17
2022-10-16T01:22:57.982Z,3.63
2022-10-16T01:25:33.628Z,1.63
2022-10-16T01:28:03.481Z,3.85
2022-10-16T01:30:33.111Z,2.33
2022-10-16T01:33:04.448Z,2.88
2022-10-16T01:35:36.672Z,3.00
2022-10-16T01:38:07.881Z,1.73
2022-10-16T01:40:37.072Z,1.60
2022-10-16T01:43:10.614Z,1.95
2022-10-16T01:48:06.597Z,4.05
2022-10-16T01:50:36.451Z,1.13
2022-10-16T01:53:05.776Z,2.10
2022-10-16T01:55:39.026Z,1.35
2022-10-16T01:58:11.092Z,2.67
2022-10-16T02:00:40.376Z,2.22
2022-10-16T02:03:08.080Z,2.20
2022-10-16T02:05:41.352Z,1.48
2022-10-16T02:08:08.028Z,2.08
2022-10-16T02:10:36.793Z,2.40
2022-10-16T02:13:10.309Z,2.17
2022-10-16T02:18:06.021Z,1.73
2022-10-16T02:20:38.750Z,4.03
2022-10-16T02:23:07.742Z,2.25
2022-10-16T02:25:41.011Z,2.25
2022-10-16T02:28:15.537Z,3.25
2022-10-16T02:30:45.537Z,2.90
2022-10-16T02:33:14.524Z,1.80
2022-10-16T02:35:42.811Z,2.28
2022-10-16T02:40:42.730Z,2.97
2022-10-16T02:43:11.311Z,2.75
2022-10-16T02:45:38.749Z,2.22
2022-10-16T02:48:05.674Z,5.38
2022-10-16T02:50:33.124Z,2.40
2022-10-16T02:53:00.007Z,1.45
2022-10-16T02:55:26.705Z,3.10
2022-10-16T02:57:53.163Z,2.80
2022-10-16T03:00:21.633Z,2.83
2022-10-16T03:02:48.150Z,2.38
2022-10-16T03:05:14.994Z,2.92
2022-10-16T03:07:41.459Z,2.28
2022-10-16T03:10:08.869Z,1.65
2022-10-16T03:12:35.418Z,2.08
2022-10-16T03:15:02.087Z,2.55
2022-10-16T03:17:29.969Z,1.77
2022-10-16T03:19:56.396Z,2.00
2022-10-16T03:22:22.918Z,1.35
2022-10-16T03:24:49.365Z,2.65
2022-10-16T03:27:15.796Z,3.85
2022-10-16T03:29:42.265Z,2.17
2022-10-16T03:32:08.742Z,1.23
2022-10-16T03:34:36.478Z,1.63
2022-10-16T03:37:03.308Z,3.28
2022-10-16T03:39:29.817Z,1.77
2022-10-16T03:41:56.257Z,1.42
2022-10-16T03:44:22.724Z,3.28
2022-10-16T03:46:49.161Z,2.63
2022-10-16T03:49:15.642Z,2.92
2022-10-16T03:51:43.421Z,2.85
2022-10-16T03:54:10.521Z,2.88
2022-10-16T03:56:36.968Z,1.65
2022-10-16T03:59:03.429Z,3.10
2022-10-16T04:01:29.847Z,2.78
2022-10-16T04:03:56.261Z,1.83
2022-10-16T04:06:22.768Z,1.58
2022-10-16T04:08:50.542Z,1.60
2022-10-16T04:11:16.950Z,4.30
2022-10-16T04:13:43.372Z,1.80
2022-10-16T04:16:09.797Z,2.05
2022-10-16T04:18:36.228Z,3.25
2022-10-16T04:21:04.585Z,2.85
2022-10-16T04:23:31.322Z,2.55
2022-10-16T04:25:59.404Z,2.05
2022-10-16T04:28:25.905Z,2.25
2022-10-16T04:30:52.344Z,1.67
2022-10-16T04:33:18.782Z,3.90
2022-10-16T04:35:45.240Z,1.77
2022-10-16T04:38:11.686Z,3.13
2022-10-16T04:40:38.235Z,1.73
2022-10-16T04:43:06.727Z,2.60
2022-10-16T04:45:33.195Z,1.90
2022-10-16T04:48:00.440Z,2.42
2022-10-16T04:50:27.011Z,3.40
2022-10-16T04:52:53.657Z,3.13
2022-10-16T04:55:20.099Z,4.78
2022-10-16T04:57:46.641Z,3.55
2022-10-16T05:00:14.836Z,2.03
2022-10-16T05:02:41.324Z,2.45
2022-10-16T05:05:08.168Z,1.70
2022-10-16T05:07:34.635Z,2.30
2022-10-16T05:10:01.023Z,3.97
2022-10-16T05:12:27.628Z,5.00
2022-10-16T05:14:54.022Z,3.60
2022-10-16T05:17:21.833Z,2.42
2022-10-16T05:19:48.254Z,1.90
2022-10-16T05:22:14.722Z,1.88
2022-10-16T05:24:41.109Z,2.35
2022-10-16T05:27:07.612Z,4.15
2022-10-16T05:29:34.062Z,2.20
2022-10-16T05:32:00.481Z,1.83
2022-10-16T05:34:28.269Z,2.25
2022-10-16T05:36:54.684Z,2.10
2022-10-16T05:39:21.206Z,3.30
2022-10-16T05:41:47.673Z,2.70
2022-10-16T05:44:14.131Z,2.20
2022-10-16T05:46:40.572Z,1.73
2022-10-16T05:49:07.023Z,2.88
2022-10-16T05:51:34.853Z,1.90
2022-10-16T05:54:01.282Z,2.45
2022-10-16T05:56:27.882Z,5.97
2022-10-16T05:58:54.368Z,2.00
2022-10-16T06:01:21.067Z,2.78
2022-10-16T06:03:47.683Z,1.90
2022-10-16T06:06:16.048Z,2.00
2022-10-16T06:08:45.382Z,2.05
2022-10-16T06:11:13.658Z,3.83
2022-10-16T06:13:40.624Z,4.03
2022-10-16T06:16:07.833Z,4.40
2022-10-16T06:18:34.394Z,2.05
2022-10-16T06:21:00.921Z,4.28
2022-10-16T06:23:29.469Z,1.90
2022-10-16T06:26:05.503Z,1.63
2022-10-16T06:28:31.953Z,3.97
2022-10-16T06:31:04.112Z,2.83
2022-10-16T06:33:33.999Z,3.13
2022-10-16T06:36:04.633Z,2.38
2022-10-16T06:38:31.944Z,2.60
2022-10-16T06:40:59.796Z,2.60
2022-10-16T06:43:26.957Z,3.03
2022-10-16T06:45:53.573Z,2.20
2022-10-16T06:48:20.641Z,5.13
2022-10-16T06:50:56.297Z,4.90
2022-10-16T06:53:22.866Z,4.38
2022-10-16T06:55:49.318Z,2.70
2022-10-16T06:58:17.170Z,1.98
2022-10-16T07:00:43.654Z,2.33
2022-10-16T07:03:10.235Z,1.48
2022-10-16T07:05:38.546Z,3.15
2022-10-16T07:08:05.236Z,3.10
2022-10-16T07:10:31.769Z,2.22
2022-10-16T07:12:58.391Z,3.13
2022-10-16T07:15:27.033Z,2.30
2022-10-16T07:17:53.488Z,2.47
2022-10-16T07:20:20.572Z,2.25
2022-10-16T07:22:47.148Z,4.80
2022-10-16T07:25:13.720Z,3.38
2022-10-16T07:27:40.270Z,2.25
2022-10-16T07:30:09.137Z,3.40
2022-10-16T07:32:37.228Z,4.15
2022-10-16T07:35:03.908Z,4.40
2022-10-16T07:37:30.569Z,1.50
2022-10-16T07:39:56.994Z,3.10
2022-10-16T07:42:23.422Z,1.52
2022-10-16T07:44:49.908Z,1.63
2022-10-16T07:47:16.559Z,2.72
2022-10-16T07:49:44.429Z,4.18
2022-10-16T07:52:10.849Z,2.78
2022-10-16T07:54:37.281Z,2.15
2022-10-16T07:57:03.747Z,1.45
2022-10-16T07:59:30.196Z,1.38
2022-10-16T08:01:56.748Z,2.03
2022-10-16T08:04:23.252Z,2.90
2022-10-16T08:06:51.057Z,3.55
2022-10-16T08:09:17.524Z,2.33
2022-10-16T08:11:43.980Z,3.58
2022-10-16T08:14:10.365Z,4.03
2022-10-16T08:16:37.048Z,4.30
2022-10-16T08:19:03.715Z,2.40
2022-10-16T08:21:30.197Z,1.25
2022-10-16T08:23:58.659Z,1.88
2022-10-16T08:26:26.241Z,2.30
2022-10-16T08:28:52.832Z,5.03
2022-10-16T08:31:19.619Z,1.70
2022-10-16T08:33:46.132Z,1.90
2022-10-16T08:36:12.791Z,4.32
2022-10-16T08:38:39.685Z,1.33
2022-10-16T08:41:28.603Z,2.53
2022-10-16T08:44:19.295Z,2.20
2022-10-16T08:46:54.119Z,1.90
2022-10-16T08:49:20.684Z,2.72
2022-10-16T08:51:47.202Z,2.80
2022-10-16T08:54:27.102Z,5.07
2022-10-16T08:56:56.591Z,2.72
2022-10-16T08:59:23.053Z,1.42
2022-10-16T09:01:51.869Z,2.65
2022-10-16T09:04:56.342Z,1.88
2022-10-16T09:07:31.979Z,3.42
2022-10-16T09:10:13.551Z,1.65
2022-10-16T09:12:47.459Z,2.75
2022-10-16T09:15:24.622Z,4.93
2022-10-16T09:18:00.766Z,5.97
2022-10-16T09:20:33.746Z,3.25
2022-10-16T09:23:15.408Z,4.05
2022-10-16T09:25:45.410Z,1.35
2022-10-16T09:28:13.245Z,2.50
2022-10-16T09:30:40.141Z,1.83
2022-10-16T09:33:08.644Z,4.15
2022-10-16T09:35:39.079Z,1.10
2022-10-16T09:38:06.051Z,3.10
2022-10-16T09:40:34.472Z,0.80
2022-10-16T09:43:14.214Z,1.45
2022-10-16T09:45:42.161Z,5.72
2022-10-16T09:48:13.339Z,2.65
2022-10-16T09:50:40.134Z,8.05
2022-10-16T09:53:11.527Z,3.38
2022-10-16T09:55:48.978Z,4.70
2022-10-16T09:58:15.461Z,6.82
2022-10-16T10:00:49.561Z,2.88
2022-10-16T10:03:44.737Z,6.28
2022-10-16T10:06:21.862Z,1.83
2022-10-16T10:09:16.701Z,1.85
2022-10-16T10:11:47.984Z,2.22
2022-10-16T10:14:27.664Z,1.65
2022-10-16T10:17:18.200Z,2.92
2022-10-16T10:19:50.755Z,2.88
2022-10-16T10:22:20.468Z,3.70
2022-10-16T10:24:57.293Z,3.47
2022-10-16T10:27:32.421Z,1.95
2022-10-16T10:30:05.393Z,3.70
2022-10-16T10:32:40.607Z,1.08
2022-10-16T10:35:17.484Z,1.35
2022-10-16T10:37:59.864Z,4.60
2022-10-16T10:40:38.771Z,1.40
2022-10-16T10:43:14.319Z,3.40
2022-10-16T10:45:44.466Z,4.93
2022-10-16T10:48:25.595Z,3.13
2022-10-16T10:50:58.518Z,1.75
2022-10-16T10:53:40.590Z,2.00
2022-10-16T10:56:16.829Z,3.00
2022-10-16T10:59:02.860Z,3.95
2022-10-16T11:01:37.787Z,5.78
2022-10-16T11:04:33.901Z,2.67
2022-10-16T11:07:04.995Z,1.55
2022-10-16T11:09:35.768Z,2.17
2022-10-16T11:12:08.936Z,7.80
2022-10-16T11:14:41.730Z,6.32
2022-10-16T11:17:12.906Z,4.20
2022-10-16T11:19:49.017Z,4.00
2022-10-16T11:22:20.259Z,4.80
2022-10-16T11:24:51.898Z,7.65
2022-10-16T11:27:24.711Z,14.75
2022-10-16T11:29:58.959Z,2.63
2022-10-16T11:32:32.874Z,2.90
2022-10-16T11:35:12.301Z,2.53
2022-10-16T11:37:43.865Z,2.03
2022-10-16T11:40:21.261Z,2.45
2022-10-16T11:42:52.778Z,2.42
2022-10-16T11:45:30.752Z,2.88
2022-10-16T11:48:02.117Z,3.03
2022-10-16T11:50:36.794Z,3.80
2022-10-16T11:53:12.465Z,3.55
2022-10-16T11:55:44.721Z,1.65
2022-10-16T11:58:22.902Z,0.57
2022-10-16T12:00:58.369Z,1.52
2022-10-16T12:03:30.276Z,2.53
2022-10-16T12:06:19.935Z,3.75
2022-10-16T12:08:47.224Z,1.80
2022-10-16T12:11:31.491Z,2.05
2022-10-16T12:14:06.671Z,2.42
2022-10-16T12:16:33.273Z,1.10
2022-10-16T12:19:14.862Z,0.75
2022-10-16T12:21:43.607Z,1.17
2022-10-16T12:24:22.496Z,2.53
2022-10-16T12:26:51.782Z,4.07
2022-10-16T12:29:33.605Z,0.90
2022-10-16T12:32:00.802Z,2.05
2022-10-16T12:34:30.211Z,0.85
2022-10-16T12:37:10.248Z,3.42
2022-10-16T12:39:41.364Z,2.33
2022-10-16T12:42:22.894Z,2.08
2022-10-16T12:44:50.137Z,3.17
2022-10-16T12:47:35.773Z,2.53
2022-10-16T12:50:05.749Z,1.80
2022-10-16T12:55:06.873Z,1.60
2022-10-16T12:57:51.195Z,1.65
2022-10-16T13:00:26.843Z,1.27
2022-10-16T13:03:34.226Z,2.28
2022-10-16T13:06:14.925Z,2.17
2022-10-16T13:09:00.036Z,3.65
2022-10-16T13:11:44.783Z,1.33
2022-10-16T13:14:27.623Z,1.08
2022-10-16T13:17:05.811Z,1.70
2022-10-16T13:19:40.932Z,1.05
2022-10-16T13:22:19.710Z,0.60
2022-10-16T13:25:05.587Z,4.22
2022-10-16T13:27:40.506Z,2.45
2022-10-16T13:30:14.633Z,2.40
2022-10-16T13:32:41.462Z,1.98
2022-10-16T13:35:20.848Z,0.43
2022-10-16T13:37:47.451Z,2.78
2022-10-16T13:40:20.812Z,0.55
2022-10-16T13:45:21.111Z,0.60
2022-10-16T13:47:47.804Z,3.05
2022-10-16T13:50:16.732Z,3.85
2022-10-16T13:52:43.579Z,0.90
2022-10-16T13:55:12.558Z,1.80
2022-10-16T13:57:40.638Z,4.70
2022-10-16T14:00:19.384Z,5.40
2022-10-16T14:02:50.533Z,1.05
2022-10-16T14:05:17.226Z,2.58
2022-10-16T14:07:44.043Z,0.70
2022-10-16T14:10:23.657Z,1.30
2022-10-16T14:12:57.782Z,0.50
2022-10-16T14:15:24.860Z,6.38
2022-10-16T14:17:53.778Z,2.50
2022-10-16T14:20:24.526Z,2.20
2022-10-16T14:23:00.180Z,1.95
2022-10-16T14:25:29.235Z,3.55
2022-10-16T14:30:36.203Z,1.63
2022-10-16T14:33:04.709Z,1.50
2022-10-16T14:35:33.688Z,1.15
2022-10-16T14:38:02.205Z,3.67
2022-10-16T14:40:31.207Z,1.05
2022-10-16T14:43:00.142Z,2.63
2022-10-16T14:45:30.521Z,2.83
2022-10-16T14:47:59.504Z,2.67
2022-10-16T14:50:26.375Z,0.75
2022-10-16T14:52:53.066Z,1.02
2022-10-16T14:55:20.150Z,0.63
2022-10-16T14:57:47.555Z,1.50
2022-10-16T15:00:19.095Z,2.67
2022-10-16T15:02:46.912Z,1.55
2022-10-16T15:05:17.311Z,1.55
2022-10-16T15:07:43.940Z,3.90
2022-10-16T15:10:10.771Z,1.10
2022-10-16T15:12:37.513Z,2.63
2022-10-16T15:15:25.775Z,2.28
2022-10-16T15:17:52.658Z,3.05
2022-10-16T15:20:19.343Z,4.10
2022-10-16T15:22:45.936Z,3.63
2022-10-16T15:25:26.814Z,3.38
2022-10-16T15:27:53.491Z,5.10
2022-10-16T15:30:20.410Z,6.65
2022-10-16T15:32:48.516Z,6.65
2022-10-16T15:35:15.175Z,6.63
2022-10-16T15:37:41.855Z,2.05
2022-10-16T15:40:09.937Z,3.60
2022-10-16T15:42:36.665Z,3.55
2022-10-16T15:45:03.795Z,3.60
2022-10-16T15:47:30.718Z,3.08
2022-10-16T15:49:58.689Z,2.65
2022-10-16T15:52:25.812Z,1.63
2022-10-16T15:54:54.287Z,2.28
2022-10-16T15:57:21.166Z,3.55
2022-10-16T15:59:47.896Z,4.10
2022-10-16T16:02:14.711Z,2.75
2022-10-16T16:04:44.906Z,3.63
2022-10-16T16:07:13.123Z,1.63
2022-10-16T16:09:39.740Z,2.88
2022-10-16T16:12:07.149Z,3.78
2022-10-16T16:14:33.868Z,5.15
2022-10-16T16:17:00.459Z,3.80
2022-10-16T16:19:26.964Z,3.38
2022-10-16T16:21:53.568Z,5.20
2022-10-16T16:24:21.585Z,2.72
2022-10-16T16:26:48.054Z,1.80
2022-10-16T16:29:16.632Z,4.13
2022-10-16T16:31:43.603Z,2.25
2022-10-16T16:34:10.295Z,3.38
2022-10-16T16:36:36.874Z,2.15
2022-10-16T16:39:03.826Z,4.85
2022-10-16T16:41:31.830Z,2.35
2022-10-16T16:44:02.943Z,5.32
2022-10-16T16:46:29.485Z,4.88
2022-10-16T16:48:55.985Z,4.68
2022-10-16T16:51:22.595Z,7.18
2022-10-16T16:53:51.005Z,6.15
2022-10-16T16:56:18.900Z,6.97
2022-10-16T16:58:48.041Z,5.93
2022-10-16T17:01:19.964Z,5.32
2022-10-16T17:03:48.699Z,9.85
2022-10-16T17:06:15.216Z,6.53
2022-10-16T17:08:42.112Z,8.85
2022-10-16T17:11:13.661Z,9.55
2022-10-16T17:13:40.104Z,9.25
2022-10-16T17:16:08.576Z,8.40
2022-10-16T17:18:35.794Z,7.40
2022-10-16T17:21:04.315Z,12.02
2022-10-16T17:23:30.979Z,7.70
2022-10-16T17:25:57.645Z,6.07
2022-10-16T17:28:24.222Z,11.77
2022-10-16T17:30:50.907Z,9.43
2022-10-16T17:33:18.850Z,14.27
2022-10-16T17:35:47.534Z,27.88
2022-10-16T17:38:15.153Z,19.80
2022-10-16T17:40:41.697Z,18.95
2022-10-16T17:43:08.225Z,17.63
2022-10-16T17:45:37.359Z,14.50
2022-10-16T17:48:04.044Z,11.10
2022-10-16T17:50:32.183Z,29.50
2022-10-16T17:52:58.698Z,9.68
2022-10-16T17:55:27.263Z,9.13
2022-10-16T17:57:57.661Z,10.02
2022-10-16T18:00:24.119Z,10.10
2022-10-16T18:02:50.614Z,4.50
2022-10-16T18:05:17.072Z,4.82
2022-10-16T18:07:45.021Z,8.57
2022-10-16T18:10:12.231Z,6.40
2022-10-16T18:12:39.151Z,13.23
2022-10-16T18:15:06.848Z,9.13
2022-10-16T18:17:35.216Z,15.35
2022-10-16T18:20:01.725Z,13.68
2022-10-16T18:22:28.187Z,13.85
2022-10-16T18:24:56.065Z,8.40
2022-10-16T18:27:22.648Z,8.25
2022-10-16T18:29:50.632Z,10.65
2022-10-16T18:32:17.263Z,13.75
2022-10-16T18:34:43.868Z,6.68
2022-10-16T18:37:10.311Z,8.50
2022-10-16T18:39:36.964Z,12.77
2022-10-16T18:42:04.863Z,8.15
2022-10-16T18:44:31.470Z,7.55
2022-10-16T18:46:58.021Z,11.63
2022-10-16T18:49:24.909Z,5.95
2022-10-16T18:51:51.755Z,5.22
2022-10-16T18:54:18.345Z,5.38
2022-10-16T18:56:44.992Z,10.27
2022-10-16T18:59:12.814Z,8.68
2022-10-16T19:01:39.837Z,9.50
2022-10-16T19:04:08.464Z,8.73
2022-10-16T19:06:36.556Z,6.22
2022-10-16T19:09:03.898Z,7.88
2022-10-16T19:11:30.765Z,6.38
2022-10-16T19:13:58.166Z,5.50
2022-10-16T19:16:27.826Z,10.15
2022-10-16T19:18:55.962Z,8.20
2022-10-16T19:21:24.504Z,6.78
2022-10-16T19:23:52.030Z,7.05
2022-10-16T19:26:19.616Z,36.70
2022-10-16T19:28:46.627Z,10.07
2022-10-16T19:31:15.296Z,10.52
2022-10-16T19:33:43.318Z,6.07
2022-10-16T19:36:10.996Z,11.00
2022-10-16T19:38:37.544Z,8.30
2022-10-16T19:41:08.104Z,8.45
2022-10-16T19:43:34.951Z,6.25
2022-10-16T19:46:05.755Z,5.85
2022-10-16T19:48:32.788Z,4.93
2022-10-16T19:51:00.654Z,4.90
2022-10-16T19:53:27.812Z,8.13
2022-10-16T19:55:54.362Z,5.90
2022-10-16T19:58:21.204Z,5.38
2022-10-16T20:00:47.683Z,4.32
2022-10-16T20:03:14.176Z,5.57
2022-10-16T20:05:40.660Z,6.63
2022-10-16T20:08:08.534Z,7.47
2022-10-16T20:10:34.944Z,8.30
2022-10-16T20:13:01.416Z,9.57
2022-10-16T20:15:27.885Z,8.05
2022-10-16T20:17:54.354Z,7.15
2022-10-16T20:20:20.746Z,11.30
2022-10-16T20:22:47.157Z,9.80
2022-10-16T20:25:16.824Z,12.63
2022-10-16T20:27:45.453Z,14.23
2022-10-16T20:30:11.909Z,10.27
2022-10-16T20:32:38.313Z,10.63
2022-10-16T20:35:07.825Z,10.43
2022-10-16T20:37:34.535Z,10.20
2022-10-16T20:40:00.987Z,12.57
2022-10-16T20:42:28.904Z,13.55
2022-10-16T20:44:55.325Z,10.50
2022-10-16T20:47:22.374Z,12.15
2022-10-16T20:49:48.838Z,9.63
2022-10-16T20:52:15.295Z,12.43
2022-10-16T20:54:44.539Z,14.35
2022-10-16T20:57:10.975Z,16.17
2022-10-16T20:59:38.710Z,9.40
2022-10-16T21:02:05.234Z,11.02
2022-10-16T21:04:31.764Z,11.05
2022-10-16T21:06:58.207Z,12.43
2022-10-16T21:09:24.618Z,13.30
2022-10-16T21:11:51.149Z,10.63
2022-10-16T21:14:17.616Z,14.55
2022-10-16T21:16:45.396Z,10.77
2022-10-16T21:19:11.855Z,9.25
2022-10-16T21:21:38.459Z,9.57
2022-10-16T21:24:06.026Z,7.10
2022-10-16T21:26:32.502Z,9.48
2022-10-16T21:29:00.560Z,8.35
2022-10-16T21:31:27.164Z,5.57
2022-10-16T21:33:55.305Z,6.45
2022-10-16T21:36:23.641Z,6.28
2022-10-16T21:38:51.006Z,5.63
2022-10-16T21:41:19.384Z,7.28
2022-10-16T21:43:46.346Z,8.18
2022-10-16T21:46:13.294Z,5.15
2022-10-16T21:48:39.869Z,5.88
2022-10-16T21:51:07.626Z,6.03
2022-10-16T21:53:34.081Z,9.45
2022-10-16T21:56:00.707Z,4.60
2022-10-16T21:58:27.256Z,5.85
2022-10-16T22:00:53.821Z,4.68
2022-10-16T22:03:20.305Z,5.18
2022-10-16T22:05:46.767Z,5.35
2022-10-16T22:08:15.300Z,6.32
2022-10-16T22:10:41.839Z,5.97
2022-10-16T22:13:08.393Z,5.47
2022-10-16T22:15:34.854Z,7.75
2022-10-16T22:18:01.307Z,5.75
2022-10-16T22:20:27.974Z,12.68
2022-10-16T22:22:54.388Z,3.58
2022-10-16T22:25:22.143Z,5.70
2022-10-16T22:27:48.607Z,6.22
2022-10-16T22:30:15.202Z,8.25
2022-10-16T22:32:41.603Z,7.60
2022-10-16T22:35:08.822Z,6.15
2022-10-16T22:37:35.263Z,7.40
2022-10-16T22:40:01.713Z,12.65
2022-10-16T22:42:29.453Z,9.40
2022-10-16T22:44:55.918Z,6.50
2022-10-16T22:47:22.446Z,6.95
2022-10-16T22:49:48.885Z,6.25
2022-10-16T22:52:15.336Z,5.22
2022-10-16T22:54:41.782Z,19.40
2022-10-16T22:57:08.233Z,5.13
2022-10-16T22:59:36.239Z,4.20
2022-10-16T23:02:02.811Z,7.40
2022-10-16T23:04:29.215Z,8.05
2022-10-16T23:06:55.633Z,6.30
2022-10-16T23:09:22.047Z,8.65
2022-10-16T23:11:48.504Z,8.43
2022-10-16T23:14:19.721Z,7.63
2022-10-16T23:16:47.523Z,8.85
2022-10-16T23:19:13.926Z,5.70
2022-10-16T23:21:40.381Z,8.55
2022-10-16T23:24:07.146Z,8.07
2022-10-16T23:26:35.597Z,4.80
2022-10-16T23:29:02.410Z,5.55
2022-10-16T23:31:29.636Z,5.72
2022-10-16T23:33:58.504Z,5.80
2022-10-16T23:36:25.495Z,6.53
2022-10-16T23:38:52.238Z,8.90
2022-10-16T23:41:19.285Z,4.80
2022-10-16T23:43:46.028Z,6.75
2022-10-16T23:46:13.803Z,5.82
2022-10-16T23:48:40.649Z,7.30
2022-10-16T23:51:09.193Z,5.88
2022-10-16T23:53:36.118Z,6.97
2022-10-16T23:56:03.272Z,6.88
2022-10-16T23:58:30.145Z,8.00
